Shenandoah National Park, Virginia
Current Conditions -  °F | °C
As of 10:15 AM on Monday 24 Nov 2014 (Local Time) from KLUA Reporting Station
Clear Clear  
Wind Chill: 64°   Ceiling: Unl
Heat Index: 64°   Visibility: 10mi
Dew Point: 55°   Wind: 12mph
Humidity: 73%   Direction: 210°SSW
Pressure: 29.66"   Gusts: NA
Location:  38.6496°N, 78.431°W
Report Text: KLUA 241515Z AUTO 21010KT 10SM CLR 18/13 A2966 RMK AO2
Loading
Personal Weather Stations






























Interactive Weather Map New forecast layout! Learn more

10-Day Weather Forecast

Advertisements
Track Severe Weather on mobile